Terminal Aerodrome Forecast
Issued by NWS

Current Version | Previous Version | Graphics & Text | Print | Product List | Glossary On
Versions: 1 2 3 4 5 6 7 8 9 10 11 12 13 14 15 16 17 18 19 20 21 22 23 24 25
000
FTUS41 KRNK 262328
TAFLWB
TAF
KLWB 262328Z 2700/2724 32003KT P6SM VCSH SCT040
     FM270200 00000KT P6SM VCTS BKN040CB
     FM270500 00000KT 4SM BR BKN250
     FM271000 00000KT 1/4SM FG OVC001
     FM271300 26005KT P6SM SCT015 OVC035
     FM271800 29004KT P6SM VCTS BKN040CB=

USA.gov is the U.S. government's official web portal to all federal, state and local government web resources and services.